createdAt,value
2019-05-06T00:00:58.365Z,96.50
2019-05-06T00:03:24.811Z,96.20
2019-05-06T00:05:54.278Z,96.60
2019-05-06T00:08:23.668Z,96.30
2019-05-06T00:10:54.276Z,96.60
2019-05-06T00:13:24.138Z,97.00
2019-05-06T00:15:54.361Z,97.00
2019-05-06T00:18:24.534Z,97.20
2019-05-06T00:20:57.220Z,97.50
2019-05-06T00:23:28.353Z,97.70
2019-05-06T00:26:01.427Z,97.10
2019-05-06T00:28:33.824Z,96.80
2019-05-06T00:31:12.342Z,96.70
2019-05-06T00:33:34.189Z,97.20
2019-05-06T00:36:04.717Z,96.50
2019-05-06T00:38:34.004Z,96.50
2019-05-06T00:41:04.816Z,96.90
2019-05-06T00:43:34.489Z,96.70
2019-05-06T00:46:04.689Z,96.70
2019-05-06T00:48:34.092Z,96.80
2019-05-06T00:51:04.491Z,97.20
2019-05-06T00:53:44.106Z,97.10
2019-05-06T00:56:14.006Z,97.00
2019-05-06T00:58:43.570Z,96.90
2019-05-06T01:01:24.123Z,97.20
2019-05-06T01:03:44.239Z,96.30
2019-05-06T01:06:14.235Z,96.10
2019-05-06T01:08:44.082Z,96.30
2019-05-06T01:11:15.372Z,96.00
2019-05-06T01:13:51.875Z,95.80
2019-05-06T01:16:21.368Z,96.00
2019-05-06T01:18:50.173Z,96.20
2019-05-06T01:21:18.963Z,96.10
2019-05-06T01:23:49.167Z,96.40
2019-05-06T01:26:17.903Z,96.30
2019-05-06T01:28:46.706Z,96.10
2019-05-06T01:31:15.537Z,96.30
2019-05-06T01:33:45.248Z,96.50
2019-05-06T01:36:14.341Z,96.50
2019-05-06T01:38:45.111Z,96.30
2019-05-06T01:41:15.415Z,96.00
2019-05-06T01:43:45.443Z,96.40
2019-05-06T01:46:14.286Z,96.10
2019-05-06T01:48:48.650Z,95.90
2019-05-06T01:51:19.918Z,96.20
2019-05-06T01:53:49.797Z,96.40
2019-05-06T01:56:18.619Z,96.70
2019-05-06T01:58:47.401Z,96.40
2019-05-06T02:01:16.200Z,96.30
2019-05-06T02:03:45.004Z,96.30
2019-05-06T02:06:14.250Z,96.30
2019-05-06T02:08:44.784Z,96.40
2019-05-06T02:11:14.824Z,96.70
2019-05-06T02:13:44.524Z,96.90
2019-05-06T02:16:14.653Z,96.80
2019-05-06T02:18:44.907Z,96.60
2019-05-06T02:21:23.856Z,97.00
2019-05-06T02:23:53.587Z,96.40
2019-05-06T02:26:23.882Z,96.30
2019-05-06T02:28:54.637Z,96.60
2019-05-06T02:31:41.436Z,96.30
2019-05-06T02:34:11.729Z,96.20
2019-05-06T02:36:50.852Z,95.80
2019-05-06T02:39:19.496Z,95.70
2019-05-06T02:41:48.200Z,95.90
2019-05-06T02:44:16.877Z,96.20
2019-05-06T02:46:47.173Z,96.10
2019-05-06T02:49:17.465Z,96.40
2019-05-06T02:51:46.120Z,96.30
2019-05-06T02:54:14.920Z,96.60
2019-05-06T02:56:43.774Z,96.80
2019-05-06T02:59:12.933Z,97.00
2019-05-06T03:01:43.264Z,96.30
2019-05-06T03:04:13.217Z,96.80
2019-05-06T03:06:44.644Z,96.60
2019-05-06T03:09:13.447Z,96.80
2019-05-06T03:11:43.843Z,96.90
2019-05-06T03:14:13.938Z,96.70
2019-05-06T03:16:43.988Z,96.50
2019-05-06T03:19:13.517Z,96.30
2019-05-06T03:21:46.620Z,96.60
2019-05-06T03:24:17.005Z,96.30
2019-05-06T03:26:45.797Z,96.40
2019-05-06T03:29:14.491Z,96.70
2019-05-06T03:31:46.413Z,96.60
2019-05-06T03:34:36.545Z,96.80
2019-05-06T03:36:48.710Z,96.80
2019-05-06T03:39:14.184Z,96.70
2019-05-06T03:41:43.709Z,96.30
2019-05-06T03:44:16.337Z,96.50
2019-05-06T03:47:05.238Z,96.40
2019-05-06T03:49:33.813Z,96.50
2019-05-06T03:52:02.942Z,96.40
2019-05-06T03:54:34.274Z,96.30
2019-05-06T03:57:04.385Z,96.50
2019-05-06T03:59:34.273Z,96.30
2019-05-06T04:02:05.176Z,96.20
2019-05-06T04:04:33.466Z,96.30
2019-05-06T04:07:03.424Z,96.50
2019-05-06T04:09:36.387Z,96.60
2019-05-06T04:12:03.738Z,96.80
2019-05-06T04:14:34.002Z,96.50
2019-05-06T04:17:07.343Z,96.60
2019-05-06T04:19:38.183Z,96.40
2019-05-06T04:22:26.763Z,96.40
2019-05-06T04:24:57.230Z,96.40
2019-05-06T04:27:33.307Z,96.10
2019-05-06T04:30:04.318Z,96.10
2019-05-06T04:32:34.111Z,95.80
2019-05-06T04:35:04.396Z,95.50
2019-05-06T04:37:33.844Z,95.70
2019-05-06T04:40:04.509Z,95.90
2019-05-06T04:42:34.514Z,95.90
2019-05-06T04:45:04.714Z,95.90
2019-05-06T04:47:33.732Z,96.40
2019-05-06T04:50:04.960Z,95.80
2019-05-06T04:52:34.176Z,95.70
2019-05-06T04:55:06.302Z,95.50
2019-05-06T04:57:35.097Z,95.50
2019-05-06T05:00:06.024Z,95.60
2019-05-06T05:02:34.817Z,95.40
2019-05-06T05:05:04.446Z,95.00
2019-05-06T05:07:33.618Z,94.70
2019-05-06T05:10:04.453Z,95.00
2019-05-06T05:12:37.592Z,94.10
2019-05-06T05:15:12.006Z,94.50
2019-05-06T05:17:58.586Z,94.50
2019-05-06T05:20:37.019Z,93.70
2019-05-06T05:22:58.323Z,94.20
2019-05-06T05:25:27.544Z,94.00
2019-05-06T05:27:56.358Z,93.70
2019-05-06T05:30:25.024Z,93.30
2019-05-06T05:32:53.762Z,93.10
2019-05-06T05:35:22.708Z,93.60
2019-05-06T05:37:52.908Z,93.00
2019-05-06T05:40:23.313Z,93.40
2019-05-06T05:43:00.048Z,93.90
2019-05-06T05:45:28.863Z,92.70
2019-05-06T05:47:59.508Z,92.60
2019-05-06T05:50:32.682Z,92.40
2019-05-06T05:53:03.824Z,92.50
2019-05-06T05:55:33.017Z,92.20
2019-05-06T05:58:03.190Z,91.70
2019-05-06T06:00:33.806Z,91.20
2019-05-06T06:03:02.964Z,91.00
2019-05-06T06:05:32.971Z,91.00
2019-05-06T06:08:02.973Z,92.00
2019-05-06T06:10:48.311Z,91.20
2019-05-06T06:13:18.998Z,91.20
2019-05-06T06:15:55.670Z,90.90
2019-05-06T06:18:35.150Z,90.50
2019-05-06T06:21:17.584Z,90.40
2019-05-06T06:23:38.695Z,90.40
2019-05-06T06:26:07.495Z,91.20
2019-05-06T06:28:36.335Z,90.20
2019-05-06T06:31:09.576Z,90.10
2019-05-06T06:33:38.386Z,88.90
2019-05-06T06:36:08.817Z,88.30
2019-05-06T06:38:39.273Z,88.70
2019-05-06T06:41:12.122Z,88.30
2019-05-06T06:43:42.891Z,87.30
2019-05-06T06:46:12.626Z,87.70
2019-05-06T06:48:43.064Z,87.10
2019-05-06T06:51:12.417Z,88.60
2019-05-06T06:53:42.100Z,90.00
2019-05-06T06:56:28.926Z,90.10
2019-05-06T06:59:02.566Z,88.50
2019-05-06T07:01:36.506Z,88.50
2019-05-06T07:04:10.514Z,88.70
2019-05-06T07:06:38.600Z,87.90
2019-05-06T07:09:07.794Z,88.10
2019-05-06T07:11:36.527Z,87.30
2019-05-06T07:14:05.323Z,88.00
2019-05-06T07:16:34.096Z,88.60
2019-05-06T07:19:03.155Z,87.10
2019-05-06T07:21:43.567Z,86.10
2019-05-06T07:24:13.138Z,85.80
2019-05-06T07:26:43.558Z,85.60
2019-05-06T07:29:21.494Z,87.80
2019-05-06T07:31:42.786Z,86.70
2019-05-06T07:34:12.017Z,86.20
2019-05-06T07:36:42.974Z,84.00
2019-05-06T07:39:15.375Z,84.10
2019-05-06T07:41:53.493Z,83.50
2019-05-06T07:44:24.202Z,82.60
2019-05-06T07:47:03.317Z,84.50
2019-05-06T07:49:32.925Z,83.50
2019-05-06T07:52:02.882Z,81.90
2019-05-06T07:54:32.995Z,80.00
2019-05-06T07:57:02.386Z,80.30
2019-05-06T07:59:33.395Z,79.60
2019-05-06T08:02:02.354Z,78.60
2019-05-06T08:04:32.424Z,77.40
2019-05-06T08:07:03.085Z,78.20
2019-05-06T08:09:32.571Z,78.10
2019-05-06T08:12:02.799Z,77.10
2019-05-06T08:14:33.846Z,75.40
2019-05-06T08:17:04.552Z,75.70
2019-05-06T08:19:33.735Z,74.30
2019-05-06T08:22:04.307Z,75.10
2019-05-06T08:24:33.312Z,74.50
2019-05-06T08:27:02.848Z,74.30
2019-05-06T08:29:33.092Z,73.00
2019-05-06T08:32:02.985Z,71.10
2019-05-06T08:34:34.094Z,71.90
2019-05-06T08:37:04.186Z,71.50
2019-05-06T08:39:32.911Z,73.60
2019-05-06T08:42:02.633Z,71.00
2019-05-06T08:44:34.396Z,69.40
2019-05-06T08:47:03.128Z,67.10
2019-05-06T08:49:33.446Z,66.40
2019-05-06T08:52:03.740Z,66.60
2019-05-06T08:54:36.680Z,66.50
2019-05-06T08:57:05.404Z,65.20
2019-05-06T08:59:34.101Z,65.90
2019-05-06T09:02:03.823Z,64.70
2019-05-06T09:04:32.550Z,63.10
2019-05-06T09:07:02.950Z,64.40
2019-05-06T09:09:32.540Z,65.00
2019-05-06T09:12:02.662Z,65.70
2019-05-06T09:14:32.686Z,66.30
2019-05-06T09:17:02.884Z,60.20
2019-05-06T09:19:33.237Z,60.80
2019-05-06T09:22:02.591Z,62.00
2019-05-06T09:24:32.098Z,59.80
2019-05-06T09:27:02.973Z,63.10
2019-05-06T09:29:33.535Z,60.30
2019-05-06T09:32:14.016Z,59.20
2019-05-06T09:34:44.403Z,60.40
2019-05-06T09:37:15.741Z,59.10
2019-05-06T09:39:47.362Z,57.50
2019-05-06T09:42:16.707Z,58.10
2019-05-06T09:44:50.250Z,57.40
2019-05-06T09:47:34.972Z,56.70
2019-05-06T09:50:05.439Z,51.30
2019-05-06T09:52:34.103Z,48.90
2019-05-06T09:55:07.040Z,47.50
2019-05-06T09:57:46.224Z,49.60
2019-05-06T10:00:16.889Z,50.90
2019-05-06T10:02:49.307Z,50.30
2019-05-06T10:05:16.048Z,47.60
2019-05-06T10:07:44.889Z,46.80
2019-05-06T10:10:13.718Z,41.30
2019-05-06T10:12:42.416Z,42.20
2019-05-06T10:15:12.734Z,39.40
2019-05-06T10:17:42.858Z,38.20
2019-05-06T10:20:12.794Z,39.40
2019-05-06T10:22:43.071Z,39.50
2019-05-06T10:25:16.360Z,36.00
2019-05-06T10:27:47.829Z,35.40
2019-05-06T10:30:17.401Z,36.20
2019-05-06T10:32:47.780Z,38.00
2019-05-06T10:35:17.075Z,37.30
2019-05-06T10:38:12.384Z,35.20
2019-05-06T10:40:59.646Z,34.80
2019-05-06T10:43:18.006Z,35.60
2019-05-06T10:45:46.657Z,36.90
2019-05-06T10:48:15.403Z,37.70
2019-05-06T10:50:45.784Z,37.00
2019-05-06T10:53:16.253Z,36.80
2019-05-06T10:55:46.691Z,34.60
2019-05-06T10:58:15.427Z,32.40
2019-05-06T11:00:44.348Z,29.40
2019-05-06T11:03:15.115Z,29.80
2019-05-06T11:05:43.972Z,31.10
2019-05-06T11:08:12.741Z,31.90
2019-05-06T11:10:45.165Z,34.30
2019-05-06T11:13:12.877Z,34.10
2019-05-06T11:15:43.401Z,34.00
2019-05-06T11:18:13.567Z,33.80
2019-05-06T11:20:43.927Z,32.60
2019-05-06T11:23:14.222Z,30.40
2019-05-06T11:25:43.486Z,31.70
2019-05-06T11:28:30.328Z,31.90
2019-05-06T11:31:02.509Z,31.40
2019-05-06T11:33:33.019Z,32.30
2019-05-06T11:36:09.053Z,31.70
2019-05-06T11:38:37.712Z,32.40
2019-05-06T11:41:06.433Z,32.70
2019-05-06T11:43:35.093Z,33.30
2019-05-06T11:46:03.911Z,31.50
2019-05-06T11:48:32.912Z,32.40
2019-05-06T11:51:03.358Z,30.90
2019-05-06T11:53:32.586Z,31.90
2019-05-06T11:56:02.111Z,31.90
2019-05-06T11:58:52.876Z,32.80
2019-05-06T12:01:25.468Z,33.10
2019-05-06T12:03:54.280Z,31.90
2019-05-06T12:06:22.936Z,32.70
2019-05-06T12:08:52.414Z,30.90
2019-05-06T12:11:23.441Z,30.00
2019-05-06T12:13:53.282Z,30.50
2019-05-06T12:16:26.223Z,30.00
2019-05-06T12:18:53.059Z,30.60
2019-05-06T12:21:23.197Z,28.00
2019-05-06T12:23:53.757Z,28.70
2019-05-06T12:26:22.631Z,29.70
2019-05-06T12:28:53.131Z,28.20
2019-05-06T12:31:23.321Z,29.80
2019-05-06T12:33:53.351Z,30.80
2019-05-06T12:36:25.130Z,31.40
2019-05-06T12:38:59.430Z,32.00
2019-05-06T12:41:28.162Z,31.00
2019-05-06T12:43:56.811Z,31.30
2019-05-06T12:46:27.149Z,32.20
2019-05-06T12:48:55.884Z,31.00
2019-05-06T12:51:24.531Z,31.40
2019-05-06T12:53:53.854Z,32.30
2019-05-06T12:56:22.745Z,32.60
2019-05-06T12:58:52.625Z,32.60
2019-05-06T13:01:22.249Z,31.50
2019-05-06T13:03:52.613Z,29.70
2019-05-06T13:06:26.332Z,27.80
2019-05-06T13:09:01.089Z,27.60
2019-05-06T13:11:23.425Z,27.20
2019-05-06T13:14:00.318Z,28.00
2019-05-06T13:16:33.199Z,27.60
2019-05-06T13:19:03.092Z,29.00
2019-05-06T13:21:32.740Z,29.00
2019-05-06T13:24:08.846Z,28.60
2019-05-06T13:26:39.094Z,28.90
2019-05-06T13:29:09.895Z,28.60
2019-05-06T13:31:40.274Z,28.00
2019-05-06T13:34:12.228Z,26.80
2019-05-06T13:36:42.868Z,29.00
2019-05-06T13:39:15.040Z,29.00
2019-05-06T13:41:42.309Z,29.80
2019-05-06T13:44:13.474Z,28.00
2019-05-06T13:46:46.108Z,27.80
2019-05-06T13:49:23.144Z,28.10
2019-05-06T13:51:53.388Z,28.60
2019-05-06T13:54:22.325Z,28.40
2019-05-06T13:59:44.083Z,29.30
2019-05-06T14:02:27.015Z,29.30
2019-05-06T14:04:58.375Z,28.50
2019-05-06T14:07:27.266Z,27.10
2019-05-06T14:09:56.007Z,27.10
2019-05-06T14:12:25.525Z,26.50
2019-05-06T14:14:55.750Z,26.80
2019-05-06T14:17:24.962Z,27.50
2019-05-06T14:19:56.136Z,26.00
2019-05-06T14:22:26.282Z,26.90
2019-05-06T14:25:00.333Z,27.60
2019-05-06T14:27:32.971Z,28.20
2019-05-06T14:30:07.592Z,27.80
2019-05-06T14:32:36.331Z,27.50
2019-05-06T14:35:06.870Z,27.20
2019-05-06T14:37:35.586Z,27.80
2019-05-06T14:40:08.533Z,29.80
2019-05-06T14:42:37.483Z,31.50
2019-05-06T14:45:07.463Z,29.40
2019-05-06T14:47:42.298Z,27.90
2019-05-06T14:50:14.409Z,27.80
2019-05-06T14:52:42.616Z,28.60
2019-05-06T14:55:15.276Z,27.70
2019-05-06T14:57:43.690Z,27.40
2019-05-06T15:00:14.330Z,27.30
2019-05-06T15:02:43.049Z,27.80
2019-05-06T15:05:13.150Z,28.70
2019-05-06T15:07:42.211Z,29.10
2019-05-06T15:10:20.273Z,28.30
2019-05-06T15:12:42.671Z,28.20
2019-05-06T15:15:12.738Z,28.00
2019-05-06T15:17:43.020Z,29.00
2019-05-06T15:20:12.260Z,29.40
2019-05-06T15:22:42.045Z,30.20
2019-05-06T15:25:12.922Z,30.20
2019-05-06T15:27:42.607Z,29.30
2019-05-06T15:30:13.620Z,28.50
2019-05-06T15:32:42.350Z,28.20
2019-05-06T15:35:22.368Z,28.00
2019-05-06T15:38:02.254Z,28.90
2019-05-06T15:40:35.986Z,29.10
2019-05-06T15:43:04.370Z,28.20
2019-05-06T15:45:33.104Z,29.10
2019-05-06T15:48:02.664Z,28.40
2019-05-06T15:50:32.432Z,28.10
2019-05-06T15:53:02.010Z,28.70
2019-05-06T15:55:32.303Z,28.00
2019-05-06T15:58:03.271Z,27.00
2019-05-06T16:00:33.091Z,27.50
2019-05-06T16:03:01.943Z,27.30
2019-05-06T16:05:33.709Z,27.60
2019-05-06T16:08:02.799Z,29.30
2019-05-06T16:10:37.881Z,29.00
2019-05-06T16:13:02.318Z,28.90
2019-05-06T16:15:33.520Z,27.70
2019-05-06T16:18:02.418Z,27.30
2019-05-06T16:20:33.287Z,26.90
2019-05-06T16:23:03.691Z,27.30
2019-05-06T16:25:32.439Z,27.70
2019-05-06T16:28:02.251Z,27.70
2019-05-06T16:30:33.701Z,29.90
2019-05-06T16:33:03.964Z,31.40
2019-05-06T16:35:32.300Z,30.20
2019-05-06T16:38:02.347Z,29.40
2019-05-06T16:40:33.497Z,29.50
2019-05-06T16:43:02.046Z,29.10
2019-05-06T16:45:30.942Z,30.00
2019-05-06T16:47:59.581Z,29.60
2019-05-06T16:50:32.449Z,30.30
2019-05-06T16:53:02.614Z,29.60
2019-05-06T16:55:48.726Z,29.10
2019-05-06T16:58:19.136Z,29.00
2019-05-06T17:00:48.171Z,29.40
2019-05-06T17:03:18.766Z,30.00
2019-05-06T17:06:07.238Z,29.60
2019-05-06T17:08:36.622Z,30.00
2019-05-06T17:11:05.626Z,30.80
2019-05-06T17:13:37.585Z,31.70
2019-05-06T17:16:04.910Z,31.10
2019-05-06T17:18:33.553Z,31.70
2019-05-06T17:21:02.247Z,32.20
2019-05-06T17:23:32.362Z,32.60
2019-05-06T17:26:01.318Z,33.90
2019-05-06T17:28:33.498Z,35.80
2019-05-06T17:31:18.704Z,38.40
2019-05-06T17:34:07.037Z,39.80
2019-05-06T17:36:37.349Z,41.10
2019-05-06T17:39:10.900Z,41.60
2019-05-06T17:41:47.626Z,42.10
2019-05-06T17:44:12.021Z,43.30
2019-05-06T17:46:45.278Z,44.40
2019-05-06T17:49:15.653Z,44.80
2019-05-06T17:52:02.972Z,45.20
2019-05-06T17:54:32.513Z,46.20
2019-05-06T17:57:03.823Z,46.50
2019-05-06T17:59:33.150Z,47.40
2019-05-06T18:02:03.656Z,48.10
2019-05-06T18:04:34.918Z,47.80
2019-05-06T18:07:03.637Z,48.60
2019-05-06T18:09:33.448Z,48.90
2019-05-06T18:12:03.157Z,49.30
2019-05-06T18:14:33.157Z,49.60
2019-05-06T18:17:03.639Z,49.90
2019-05-06T18:19:33.514Z,49.70
2019-05-06T18:22:05.058Z,49.70
2019-05-06T18:24:35.247Z,50.50
2019-05-06T18:27:04.032Z,51.40
2019-05-06T18:29:33.642Z,52.00
2019-05-06T18:32:03.711Z,52.30
2019-05-06T18:34:33.202Z,52.30
2019-05-06T18:37:03.227Z,52.40
2019-05-06T18:39:33.698Z,52.60
2019-05-06T18:42:15.556Z,52.90
2019-05-06T18:44:33.456Z,53.90
2019-05-06T18:47:02.811Z,54.20
2019-05-06T18:49:33.619Z,54.70
2019-05-06T18:52:02.374Z,54.90
2019-05-06T18:54:33.626Z,55.20
2019-05-06T18:57:04.330Z,55.30
2019-05-06T18:59:33.033Z,56.20
2019-05-06T19:02:02.243Z,56.30
2019-05-06T19:04:33.510Z,55.60
2019-05-06T19:07:12.429Z,55.60
2019-05-06T19:09:34.546Z,55.40
2019-05-06T19:12:03.755Z,55.50
2019-05-06T19:14:33.313Z,55.60
2019-05-06T19:17:02.815Z,55.70
2019-05-06T19:19:34.226Z,54.90
2019-05-06T19:22:02.911Z,55.90
2019-05-06T19:24:33.606Z,56.00
2019-05-06T19:27:02.190Z,56.20
2019-05-06T19:29:32.735Z,56.70
2019-05-06T19:32:02.966Z,57.00
2019-05-06T19:34:34.543Z,57.30
2019-05-06T19:37:02.542Z,57.50
2019-05-06T19:39:32.943Z,57.30
2019-05-06T19:42:02.802Z,57.70
2019-05-06T19:44:32.214Z,57.30
2019-05-06T19:47:02.546Z,57.10
2019-05-06T19:49:32.783Z,57.40
2019-05-06T19:52:03.158Z,57.90
2019-05-06T19:54:33.019Z,58.20
2019-05-06T19:57:02.598Z,58.10
2019-05-06T19:59:33.099Z,58.40
2019-05-06T20:02:01.931Z,58.20
2019-05-06T20:04:33.099Z,58.30
2019-05-06T20:07:05.832Z,58.70
2019-05-06T20:09:42.657Z,58.60
2019-05-06T20:12:32.762Z,59.50
2019-05-06T20:15:19.478Z,59.90
2019-05-06T20:17:48.138Z,59.80
2019-05-06T20:20:16.945Z,58.90
2019-05-06T20:22:45.664Z,58.80
2019-05-06T20:25:14.461Z,58.90
2019-05-06T20:27:43.123Z,58.90
2019-05-06T20:30:12.058Z,58.70
2019-05-06T20:32:42.524Z,59.60
2019-05-06T20:35:13.009Z,60.00
2019-05-06T20:37:42.578Z,60.00
2019-05-06T20:40:14.530Z,59.60
2019-05-06T20:42:42.707Z,59.90
2019-05-06T20:45:12.815Z,60.30
2019-05-06T20:47:42.938Z,60.00
2019-05-06T20:50:13.224Z,59.70
2019-05-06T20:52:42.518Z,59.70
2019-05-06T20:55:15.885Z,59.90
2019-05-06T20:57:42.465Z,60.10
2019-05-06T21:00:12.860Z,59.50
2019-05-06T21:02:42.499Z,59.40
2019-05-06T21:05:13.933Z,60.10
2019-05-06T21:07:43.264Z,61.50
2019-05-06T21:10:12.761Z,61.80
2019-05-06T21:12:42.235Z,62.80
2019-05-06T21:15:13.320Z,64.30
2019-05-06T21:17:42.048Z,65.50
2019-05-06T21:20:11.418Z,66.40
2019-05-06T21:22:40.074Z,66.60
2019-05-06T21:25:09.161Z,66.60
2019-05-06T21:27:37.983Z,67.30
2019-05-06T21:30:07.671Z,67.00
2019-05-06T21:32:36.399Z,65.20
2019-05-06T21:35:05.810Z,62.00
2019-05-06T21:37:34.466Z,60.70
2019-05-06T21:40:03.201Z,59.20
2019-05-06T21:42:32.559Z,60.70
2019-05-06T21:45:03.238Z,61.50
2019-05-06T21:47:32.528Z,61.60
2019-05-06T21:50:01.356Z,62.00
2019-05-06T21:52:39.303Z,62.80
2019-05-06T21:55:02.411Z,62.30
2019-05-06T21:57:30.594Z,62.50
2019-05-06T21:59:59.254Z,63.10
2019-05-06T22:02:28.106Z,63.40
2019-05-06T22:04:56.841Z,62.10
2019-05-06T22:07:25.559Z,61.60
2019-05-06T22:09:54.217Z,61.60
2019-05-06T22:12:24.525Z,60.90
2019-05-06T22:14:53.242Z,61.80
2019-05-06T22:17:22.557Z,63.40
2019-05-06T22:19:52.400Z,63.60
2019-05-06T22:22:23.426Z,63.90
2019-05-06T22:24:57.360Z,54.80
2019-05-06T22:27:22.648Z,56.60
2019-05-06T22:29:52.262Z,53.40
2019-05-06T22:32:23.128Z,54.80
2019-05-06T22:34:51.576Z,54.80
2019-05-06T22:37:22.014Z,55.00
2019-05-06T22:39:52.545Z,55.60
2019-05-06T22:42:22.592Z,51.30
2019-05-06T22:44:51.221Z,50.10
2019-05-06T22:47:19.945Z,48.20
2019-05-06T22:49:48.738Z,48.50
2019-05-06T22:52:17.386Z,49.80
2019-05-06T22:54:46.073Z,49.10
2019-05-06T22:57:14.722Z,49.30
2019-05-06T22:59:43.366Z,51.60
2019-05-06T23:02:16.512Z,52.00
2019-05-06T23:04:46.807Z,50.80
2019-05-06T23:07:16.469Z,50.10
2019-05-06T23:09:45.124Z,51.00
2019-05-06T23:12:13.778Z,53.30
2019-05-06T23:14:42.496Z,55.50
2019-05-06T23:17:12.709Z,55.50
2019-05-06T23:19:42.896Z,56.60
2019-05-06T23:22:12.222Z,53.60
2019-05-06T23:24:40.885Z,52.80
2019-05-06T23:27:09.534Z,53.20
2019-05-06T23:29:38.190Z,50.70
2019-05-06T23:32:06.910Z,52.20
2019-05-06T23:34:35.575Z,50.00
2019-05-06T23:37:07.297Z,49.40
2019-05-06T23:40:14.121Z,50.00
2019-05-06T23:43:19.059Z,50.30
2019-05-06T23:46:05.378Z,50.60
2019-05-06T23:49:10.577Z,50.50
2019-05-06T23:52:15.746Z,50.90
2019-05-06T23:55:22.072Z,50.30
2019-05-06T23:57:49.778Z,52.70
